Time;durP1;ratioP1;P1;durP2;ratioP2;P2;SDS_P1;SDS_P2;PMS_P1;PMS_P2;Temp;Humidity;BMP_temperature;BMP_pressure;BME280_temperature;BME280_humidity;BME280_pressure;Samples;Min_cycle;Max_cycle;Signal;HPM_P1;HPM_P2
2021/08/19 00:00:13;;;;;;;8.65;4.68;;;435.90;2355.20;;;;;;5015552;28;20034;-86
2021/08/19 00:02:39;;;;;;;9.07;4.03;;;435.90;2355.20;;;;;;5015185;28;20053;-86
2021/08/19 00:05:05;;;;;;;7.03;3.90;;;436.10;2355.20;;;;;;5015115;28;20033;-85
2021/08/19 00:07:31;;;;;;;10.85;4.00;;;435.90;2355.20;;;;;;5015528;28;20079;-85
2021/08/19 00:09:57;;;;;;;11.07;4.45;;;436.00;2355.20;;;;;;5016303;28;20037;-85
2021/08/19 00:12:26;;;;;;;15.68;5.53;;;436.00;2355.20;;;;;;5015285;28;20026;-87
2021/08/19 00:14:52;;;;;;;9.65;4.75;;;436.00;2355.20;;;;;;5015369;28;20472;-86
2021/08/19 00:17:18;;;;;;;9.32;4.95;;;436.10;2355.20;;;;;;5014845;28;20033;-85
2021/08/19 00:19:44;;;;;;;9.63;4.78;;;460.80;2380.80;;;;;;5015045;28;20045;-86
2021/08/19 00:22:09;;;;;;;11.52;5.70;;;436.10;2355.20;;;;;;5015083;28;20490;-85
2021/08/19 00:24:35;;;;;;;12.07;5.80;;;436.10;2355.20;;;;;;5015009;28;20030;-85
2021/08/19 00:27:01;;;;;;;10.15;5.18;;;460.80;2380.80;;;;;;5014901;28;20030;-86
2021/08/19 00:29:27;;;;;;;9.75;4.65;;;435.90;2355.20;;;;;;5015057;28;20026;-86
2021/08/19 00:31:52;;;;;;;8.40;4.95;;;460.80;2380.80;;;;;;5014860;28;20084;-85
2021/08/19 00:34:21;;;;;;;10.95;5.07;;;435.70;2355.20;;;;;;5014452;28;20064;-86
2021/08/19 00:36:47;;;;;;;11.32;4.20;;;435.80;2355.20;;;;;;5014826;28;20034;-85
2021/08/19 00:39:13;;;;;;;7.38;3.90;;;436.10;2355.20;;;;;;5014844;28;20034;-85
2021/08/19 00:41:41;;;;;;;10.00;5.00;;;460.80;2380.80;;;;;;5014655;28;20030;-85
2021/08/19 00:44:07;;;;;;;8.73;4.40;;;460.80;2380.80;;;;;;5014617;28;20026;-85
2021/08/19 00:46:35;;;;;;;10.70;4.40;;;460.80;2380.80;;;;;;5014723;28;20029;-86
2021/08/19 00:49:09;;;;;;;11.35;4.50;;;460.90;2380.80;;;;;;5014242;28;20026;-85
2021/08/19 00:51:48;;;;;;;7.57;3.92;;;461.00;2380.80;;;;;;5014354;28;20033;-85
2021/08/19 00:54:18;;;;;;;9.32;5.05;;;461.00;2380.80;;;;;;5014266;28;20026;-85
2021/08/19 00:56:44;;;;;;;10.45;4.70;;;461.00;2380.80;;;;;;4998344;28;20033;-85
2021/08/19 00:59:15;;;;;;;10.85;4.85;;;460.90;2380.80;;;;;;4997868;28;20026;-84
2021/08/19 01:01:41;;;;;;;12.48;4.80;;;436.00;2355.20;;;;;;4998114;28;20083;-85
2021/08/19 01:04:08;;;;;;;9.85;4.47;;;435.90;2355.20;;;;;;4997946;28;20414;-86
2021/08/19 01:06:35;;;;;;;10.05;4.82;;;436.10;2355.20;;;;;;5015361;28;20084;-85
2021/08/19 01:09:02;;;;;;;7.20;4.63;;;460.80;2380.80;;;;;;4997772;28;20049;-84
2021/08/19 01:11:33;;;;;;;9.60;4.82;;;435.90;2355.20;;;;;;4997559;28;20379;-85
2021/08/19 01:13:58;;;;;;;9.10;5.03;;;435.90;2355.20;;;;;;4997400;28;20050;-85
2021/08/19 01:16:24;;;;;;;10.60;5.43;;;436.00;2355.20;;;;;;4997513;28;20065;-85
2021/08/19 01:18:50;;;;;;;8.55;4.75;;;436.00;2355.20;;;;;;4997510;28;20025;-85
2021/08/19 01:21:17;;;;;;;8.15;4.82;;;435.90;2355.20;;;;;;5014989;28;20122;-85
2021/08/19 01:23:44;;;;;;;11.40;5.00;;;436.00;2355.20;;;;;;4997494;28;20033;-85
2021/08/19 01:26:14;;;;;;;10.10;4.55;;;435.90;2355.20;;;;;;4997199;28;20026;-85
2021/08/19 01:28:40;;;;;;;6.68;3.80;;;435.60;2355.20;;;;;;4997373;28;20112;-85
2021/08/19 01:31:07;;;;;;;9.55;4.88;;;435.20;2355.20;;;;;;4997501;28;20030;-85
2021/08/19 01:33:34;;;;;;;9.98;4.22;;;435.50;2355.20;;;;;;5014463;28;20026;-85
2021/08/19 01:36:01;;;;;;;11.02;5.78;;;435.50;2355.20;;;;;;4997255;28;20116;-85
2021/08/19 01:38:35;;;;;;;10.73;5.35;;;435.60;2355.20;;;;;;4997268;28;20144;-85
2021/08/19 01:41:01;;;;;;;9.02;5.32;;;435.70;2355.20;;;;;;4996891;28;20121;-85
2021/08/19 01:43:28;;;;;;;10.32;5.88;;;435.80;2355.20;;;;;;4997261;28;20030;-85
2021/08/19 01:46:04;;;;;;;13.57;5.65;;;435.70;2355.20;;;;;;4997180;28;20145;-85
2021/08/19 01:48:30;;;;;;;10.55;4.90;;;435.30;2355.20;;;;;;4996746;28;20034;-84
2021/08/19 01:50:57;;;;;;;8.60;4.65;;;435.40;2355.20;;;;;;4997127;28;20030;-85
2021/08/19 01:53:26;;;;;;;10.43;4.22;;;435.30;2355.20;;;;;;4997128;28;20513;-85
2021/08/19 01:55:54;;;;;;;9.50;4.20;;;410.50;2355.20;;;;;;5007017;28;20113;-85
2021/08/19 01:58:21;;;;;;;11.50;5.15;;;435.30;2355.20;;;;;;5012834;28;20034;-86
2021/08/19 02:00:48;;;;;;;8.60;4.45;;;435.50;2355.20;;;;;;5012189;28;20030;-86
2021/08/19 02:03:14;;;;;;;7.63;4.40;;;435.30;2355.20;;;;;;5012664;28;20032;-86
2021/08/19 02:05:40;;;;;;;7.97;4.55;;;435.40;2355.20;;;;;;5013174;28;20368;-84
2021/08/19 02:08:07;;;;;;;10.52;4.85;;;435.60;2355.20;;;;;;5012739;28;20034;-84
2021/08/19 02:10:37;;;;;;;10.05;4.70;;;410.50;2355.20;;;;;;5012690;28;20022;-85
2021/08/19 02:13:07;;;;;;;9.38;4.15;;;410.20;2355.20;;;;;;5012611;28;20476;-85
2021/08/19 02:15:33;;;;;;;13.10;5.35;;;410.30;2355.20;;;;;;5012657;28;20048;-84
2021/08/19 02:17:59;;;;;;;9.80;4.40;;;410.20;2355.20;;;;;;5012743;28;20041;-85
2021/08/19 02:20:27;;;;;;;14.00;4.85;;;409.70;2355.20;;;;;;5012746;28;20018;-85
2021/08/19 02:23:01;;;;;;;7.82;4.60;;;409.80;2355.20;;;;;;5012606;28;20526;-85
2021/08/19 02:25:28;;;;;;;8.98;4.93;;;410.00;2355.20;;;;;;5012682;28;20032;-86
2021/08/19 02:27:54;;;;;;;7.57;4.93;;;384.90;2329.60;;;;;;5012625;28;20430;-87
2021/08/19 02:30:23;;;;;;;11.48;4.35;;;410.40;2355.20;;;;;;5012767;28;20080;-85
2021/08/19 02:32:56;;;;;;;7.75;4.28;;;410.10;2355.20;;;;;;5014348;28;20034;-87
2021/08/19 02:35:25;;;;;;;;;;;410.20;2355.20;;;;;;4997644;28;20105;-85
2021/08/19 02:37:53;;;;;;;9.15;4.53;;;410.30;2355.20;;;;;;5012347;28;19909;-87
2021/08/19 02:40:29;;;;;;;6.25;4.03;;;410.20;2355.20;;;;;;5012534;28;20076;-84
2021/08/19 02:43:38;;;;;;;9.57;4.88;;;410.20;2355.20;;;;;;5012687;28;20034;-86
2021/08/19 02:49:40;;;;;;;11.32;5.00;;;410.00;2355.20;;;;;;4955790;28;20050;-86
2021/08/19 02:56:04;;;;;;;8.15;3.65;;;409.90;2355.20;;;;;;4992234;28;20406;-87
2021/08/19 03:02:20;;;;;;;6.95;3.47;;;409.70;2355.20;;;;;;4934175;29;20035;-86
2021/08/19 03:05:07;;;;;;;6.63;3.65;;;384.90;2329.60;;;;;;4925855;29;20035;-85
2021/08/19 03:07:35;;;;;;;9.52;4.40;;;409.60;2355.20;;;;;;4933970;29;20505;-86
2021/08/19 03:10:04;;;;;;;12.57;5.00;;;409.60;2355.20;;;;;;4992623;28;20045;-86
2021/08/19 03:12:30;;;;;;;15.32;5.20;;;409.60;2355.20;;;;;;5014783;28;20018;-86
2021/08/19 03:15:01;;;;;;;11.48;4.53;;;409.80;2355.20;;;;;;5015982;28;20026;-86
2021/08/19 03:17:33;;;;;;;13.75;5.28;;;409.80;2355.20;;;;;;5015859;28;20030;-85
2021/08/19 03:20:18;;;;;;;13.48;6.10;;;409.70;2355.20;;;;;;5015575;28;20036;-87
2021/08/19 03:26:10;;;;;;;;;;;409.80;2355.20;;;;;;4976065;28;20085;-86
2021/08/19 03:28:40;;;;;;;11.55;4.68;;;409.80;2355.20;;;;;;4959845;28;19960;-86
2021/08/19 03:31:07;;;;;;;9.88;5.00;;;409.70;2355.20;;;;;;5008560;28;20030;-87
2021/08/19 03:33:49;;;;;;;;;;;;;;;;;;;;;
2021/08/19 03:36:15;;;;;;;14.05;6.07;;;409.80;2355.20;;;;;;5017004;28;20025;-86
2021/08/19 03:38:45;;;;;;;15.13;6.10;;;384.90;2329.60;;;;;;5015749;28;20122;-86
2021/08/19 03:41:14;;;;;;;17.70;6.68;;;384.80;2329.60;;;;;;5015320;28;20057;-86
2021/08/19 03:44:09;;;;;;;11.50;5.90;;;384.90;2329.60;;;;;;5015344;28;20467;-86
2021/08/19 03:47:04;;;;;;;14.10;6.03;;;384.90;2329.60;;;;;;5015012;28;20431;-86
2021/08/19 03:53:33;;;;;;;10.40;5.28;;;384.60;2329.60;;;;;;4937115;29;20066;-86
2021/08/19 03:56:05;;;;;;;8.88;4.38;;;384.60;2329.60;;;;;;4920308;28;20043;-85
2021/08/19 03:58:46;;;;;;;12.07;4.75;;;384.60;2329.60;;;;;;5015008;28;20036;-85
2021/08/19 04:01:33;;;;;;;10.57;4.70;;;384.40;2329.60;;;;;;5014721;28;20030;-86
2021/08/19 04:04:07;;;;;;;11.13;4.38;;;384.10;2329.60;;;;;;5015940;28;20041;-86
2021/08/19 04:06:33;;;;;;;9.68;4.55;;;384.00;2329.60;;;;;;5015340;28;20029;-85
2021/08/19 04:09:00;;;;;;;15.25;6.38;;;359.30;2329.60;;;;;;5014982;28;20032;-85
2021/08/19 04:11:26;;;;;;;13.77;5.72;;;359.10;2329.60;;;;;;4998604;28;20030;-86
2021/08/19 04:14:01;;;;;;;11.18;5.10;;;359.00;2329.60;;;;;;5014886;28;20021;-86
2021/08/19 04:16:30;;;;;;;9.93;4.22;;;359.10;2329.60;;;;;;5014753;28;20030;-86
2021/08/19 04:19:06;;;;;;;10.88;4.53;;;359.00;2329.60;;;;;;5016168;28;20104;-86
2021/08/19 04:21:32;;;;;;;7.40;4.63;;;359.20;2329.60;;;;;;5014315;28;20026;-88
2021/08/19 04:23:58;;;;;;;6.68;4.00;;;359.20;2329.60;;;;;;5013562;28;20476;-85
2021/08/19 04:26:28;;;;;;;9.00;4.05;;;384.00;2329.60;;;;;;5014468;28;20107;-86
2021/08/19 04:30:30;;;;;;;;;;;;;;;;;;;;;
2021/08/19 04:47:05;;;;;;;16.85;5.88;;;384.20;2329.60;;;;;;4919679;29;20039;-85
2021/08/19 05:00:31;;;;;;;15.40;5.95;;;384.10;2329.60;;;;;;4868812;29;20556;-86
2021/08/19 05:06:53;;;;;;;9.93;4.75;;;384.00;2329.60;;;;;;4881967;29;20055;-85
2021/08/19 05:09:31;;;;;;;13.18;5.07;;;384.20;2329.60;;;;;;4898309;29;20494;-85
2021/08/19 05:23:19;;;;;;;10.80;5.20;;;384.80;2329.60;;;;;;4879107;29;20085;-86
2021/08/19 05:25:50;;;;;;;14.65;5.70;;;384.80;2329.60;;;;;;4887462;29;20131;-86
2021/08/19 05:31:35;;;;;;;15.70;6.80;;;384.60;2329.60;;;;;;4877457;29;20028;-86
2021/08/19 05:34:07;;;;;;;11.65;5.63;;;384.60;2329.60;;;;;;4878502;29;20032;-86
2021/08/19 05:39:35;;;;;;;9.77;5.90;;;384.80;2329.60;;;;;;5007334;28;20036;-86
2021/08/19 05:43:05;;;;;;;;;;;;;;;;;;;;;
2021/08/19 05:53:24;;;;;;;15.52;6.50;;;410.10;2355.20;;;;;;4896672;29;20546;-86
2021/08/19 05:55:50;;;;;;;9.05;5.50;;;410.20;2355.20;;;;;;4896722;28;20056;-84
2021/08/19 06:01:14;;;;;;;13.43;5.25;;;435.30;2355.20;;;;;;4935465;28;20191;-84
2021/08/19 06:03:40;;;;;;;13.80;5.82;;;435.30;2355.20;;;;;;4938087;29;20130;-85
2021/08/19 06:06:06;;;;;;;13.80;6.20;;;435.60;2355.20;;;;;;4959163;28;20474;-84
2021/08/19 06:08:32;;;;;;;11.27;6.05;;;435.40;2355.20;;;;;;5014552;28;20033;-85
2021/08/19 06:10:58;;;;;;;10.15;5.55;;;435.50;2355.20;;;;;;4996759;28;20375;-85
2021/08/19 06:13:24;;;;;;;11.93;5.32;;;435.50;2355.20;;;;;;4996687;28;20033;-85
2021/08/19 06:15:49;;;;;;;7.68;4.25;;;435.80;2355.20;;;;;;4996450;28;20041;-85
2021/08/19 06:18:15;;;;;;;8.18;4.00;;;435.90;2355.20;;;;;;4996325;28;20026;-84
2021/08/19 06:20:42;;;;;;;8.68;4.10;;;435.70;2355.20;;;;;;5005333;28;20025;-86
2021/08/19 06:23:11;;;;;;;9.98;5.05;;;435.80;2355.20;;;;;;5000673;28;20036;-86
2021/08/19 06:25:42;;;;;;;17.25;10.27;;;436.10;2355.20;;;;;;5000088;28;20047;-84
2021/08/19 06:28:08;;;;;;;9.15;6.57;;;460.80;2380.80;;;;;;4995970;28;20026;-84
2021/08/19 06:30:35;;;;;;;9.98;4.80;;;460.90;2380.80;;;;;;4996762;28;20033;-84
2021/08/19 06:33:01;;;;;;;8.90;4.13;;;461.20;2380.80;;;;;;4996083;28;20037;-83
2021/08/19 06:35:27;;;;;;;10.50;4.35;;;460.80;2380.80;;;;;;4996167;28;20034;-84
2021/08/19 06:37:53;;;;;;;7.30;4.28;;;461.00;2380.80;;;;;;4996658;28;20384;-84
2021/08/19 06:40:19;;;;;;;10.38;4.55;;;461.10;2380.80;;;;;;4996739;28;20029;-84
2021/08/19 06:42:45;;;;;;;8.38;4.25;;;461.20;2380.80;;;;;;5013979;28;20101;-84
2021/08/19 06:45:11;;;;;;;8.43;4.18;;;461.20;2380.80;;;;;;4996612;28;20037;-84
2021/08/19 06:47:38;;;;;;;9.63;3.80;;;461.40;2380.80;;;;;;4999748;28;20068;-83
2021/08/19 06:50:04;;;;;;;6.55;4.03;;;461.40;2380.80;;;;;;5000595;28;20026;-84
2021/08/19 06:52:30;;;;;;;9.40;4.53;;;461.40;2380.80;;;;;;5000644;28;20037;-84
2021/08/19 06:54:59;;;;;;;9.38;4.68;;;461.60;2380.80;;;;;;5002720;28;20030;-84
2021/08/19 06:57:24;;;;;;;9.90;4.57;;;461.70;2380.80;;;;;;5020178;28;20061;-83
2021/08/19 06:59:50;;;;;;;11.07;4.72;;;486.60;2380.80;;;;;;5019889;28;20084;-83
2021/08/19 07:02:16;;;;;;;8.98;5.10;;;486.80;2380.80;;;;;;5019505;28;20030;-84
2021/08/19 07:04:42;;;;;;;8.77;4.20;;;486.80;2380.80;;;;;;5037373;28;20021;-83
2021/08/19 07:07:08;;;;;;;7.88;4.35;;;486.80;2380.80;;;;;;5019770;28;20025;-84
2021/08/19 07:09:33;;;;;;;10.45;4.97;;;486.80;2380.80;;;;;;5019501;28;20021;-84
2021/08/19 07:11:59;;;;;;;8.38;5.50;;;486.90;2380.80;;;;;;5019746;28;20103;-84
2021/08/19 07:14:25;;;;;;;8.00;4.00;;;487.10;2380.80;;;;;;5019605;28;20033;-84
2021/08/19 07:16:51;;;;;;;11.95;4.18;;;487.30;2380.80;;;;;;5019307;28;20036;-84
2021/08/19 07:19:17;;;;;;;9.18;4.45;;;512.00;2380.80;;;;;;5019555;28;20123;-84
2021/08/19 07:21:45;;;;;;;7.20;4.65;;;512.10;2380.80;;;;;;5019458;28;20025;-84
2021/08/19 07:24:11;;;;;;;11.27;5.38;;;512.10;2380.80;;;;;;5019601;28;20410;-84
2021/08/19 07:26:37;;;;;;;12.10;4.22;;;512.40;2380.80;;;;;;5019416;28;20083;-84
2021/08/19 07:29:03;;;;;;;8.68;4.70;;;512.30;2380.80;;;;;;5019626;28;20025;-84
2021/08/19 07:31:29;;;;;;;13.23;4.18;;;512.50;2380.80;;;;;;5018993;28;20211;-83
2021/08/19 07:34:05;;;;;;;11.02;5.18;;;512.50;2380.80;;;;;;5019334;28;20025;-82
2021/08/19 07:37:36;;;;;;;12.32;5.20;;;512.80;2380.80;;;;;;5019038;28;20470;-83
2021/08/19 07:40:09;;;;;;;10.10;4.63;;;537.70;2380.80;;;;;;5018886;28;20068;-83
2021/08/19 07:42:34;;;;;;;7.72;3.92;;;537.70;2355.20;;;;;;5026533;28;20119;-82
2021/08/19 07:45:00;;;;;;;8.85;4.40;;;537.90;2304.00;;;;;;5037996;28;20120;-82
2021/08/19 07:47:26;;;;;;;8.55;4.22;;;537.90;2304.00;;;;;;5024487;28;20055;-82
2021/08/19 07:49:52;;;;;;;10.90;4.90;;;538.10;2278.40;;;;;;5017145;28;20072;-82
2021/08/19 07:52:17;;;;;;;8.10;4.13;;;538.50;2252.80;;;;;;5008474;28;20032;-81
2021/08/19 07:54:43;;;;;;;9.02;4.70;;;538.40;2227.20;;;;;;5010291;28;20144;-82
2021/08/19 07:57:09;;;;;;;6.97;3.85;;;563.20;2252.80;;;;;;5003378;28;20041;-82
2021/08/19 07:59:35;;;;;;;8.55;4.47;;;563.40;2252.80;;;;;;5016337;28;20467;-84
2021/08/19 08:02:02;;;;;;;10.95;3.95;;;563.40;2227.20;;;;;;5016126;28;20079;-81
2021/08/19 08:04:27;;;;;;;9.40;4.38;;;563.40;2227.20;;;;;;5015880;28;20044;-82
2021/08/19 08:06:53;;;;;;;9.25;4.50;;;563.50;2201.60;;;;;;5015588;28;20041;-82
2021/08/19 08:09:19;;;;;;;6.82;3.92;;;563.60;2176.00;;;;;;5015919;28;20045;-82
2021/08/19 08:11:45;;;;;;;7.05;4.25;;;563.70;2176.00;;;;;;5015357;28;20025;-80
2021/08/19 08:14:11;;;;;;;8.07;4.53;;;563.80;2176.00;;;;;;5016035;28;20116;-80
2021/08/19 08:16:36;;;;;;;7.32;5.03;;;564.10;2176.00;;;;;;5017719;28;20024;-80
2021/08/19 08:19:02;;;;;;;13.75;6.55;;;589.00;2150.40;;;;;;5035766;28;20079;-80
2021/08/19 08:21:29;;;;;;;10.05;5.40;;;589.10;2124.80;;;;;;5017272;28;20035;-80
2021/08/19 08:23:55;;;;;;;7.20;4.75;;;589.10;2073.60;;;;;;5017623;28;20021;-80
2021/08/19 08:26:25;;;;;;;8.05;3.60;;;589.20;2099.20;;;;;;5017526;28;20021;-81
2021/08/19 08:28:51;;;;;;;8.15;3.50;;;589.30;2048.00;;;;;;5016242;28;20033;-85
2021/08/19 08:31:17;;;;;;;6.82;4.05;;;589.30;2048.00;;;;;;5015959;28;20025;-80
2021/08/19 08:33:45;;;;;;;7.57;3.78;;;589.50;2048.00;;;;;;5015546;28;20025;-81
2021/08/19 08:36:11;;;;;;;7.45;3.72;;;589.50;2022.40;;;;;;5017459;28;20036;-82
2021/08/19 08:38:36;;;;;;;5.57;3.28;;;589.70;2022.40;;;;;;5016471;28;20058;-80
2021/08/19 08:41:02;;;;;;;12.63;4.25;;;614.50;1996.80;;;;;;5033027;28;20437;-81
2021/08/19 08:43:28;;;;;;;9.48;4.70;;;614.50;2022.40;;;;;;5035283;28;20059;-81
2021/08/19 08:45:57;;;;;;;8.93;4.25;;;614.70;1996.80;;;;;;5054145;28;20032;-81
2021/08/19 08:48:24;;;;;;;9.77;4.95;;;614.80;1996.80;;;;;;5037179;28;20029;-81
2021/08/19 08:50:52;;;;;;;9.43;4.47;;;615.00;1971.20;;;;;;5037460;28;20029;-78
2021/08/19 08:53:19;;;;;;;7.00;4.03;;;614.80;1971.20;;;;;;5019305;28;20417;-78
2021/08/19 08:55:46;;;;;;;8.43;4.53;;;614.80;1945.60;;;;;;5012979;28;20479;-80
2021/08/19 08:58:12;;;;;;;7.90;3.10;;;614.90;1945.60;;;;;;5013067;28;20038;-80
2021/08/19 09:00:43;;;;;;;7.82;3.85;;;614.70;1945.60;;;;;;4995589;28;20113;-80
2021/08/19 09:03:10;;;;;;;4.85;3.00;;;615.10;1945.60;;;;;;4996297;28;20036;-81
2021/08/19 09:06:02;;;;;;;8.98;4.35;;;615.30;1945.60;;;;;;4997283;28;20397;-81
2021/08/19 09:08:28;;;;;;;8.15;4.43;;;640.30;1945.60;;;;;;4992092;28;20085;-81
2021/08/19 09:10:58;;;;;;;9.88;3.58;;;640.20;1920.00;;;;;;4997102;28;20061;-80
2021/08/19 09:13:27;;;;;;;9.10;3.92;;;640.00;1894.40;;;;;;4997551;28;20414;-81
2021/08/19 09:15:54;;;;;;;9.70;3.50;;;640.40;1868.80;;;;;;4997148;28;20026;-81
2021/08/19 09:18:32;;;;;;;8.13;3.70;;;640.40;1894.40;;;;;;4997166;28;20068;-80
2021/08/19 09:20:58;;;;;;;7.30;4.53;;;615.30;1945.60;;;;;;4997221;28;20112;-80
2021/08/19 09:23:25;;;;;;;10.15;5.55;;;640.00;1920.00;;;;;;4996838;28;20022;-81
2021/08/19 09:25:51;;;;;;;9.88;4.55;;;640.50;1894.40;;;;;;4997170;28;20037;-80
2021/08/19 09:28:26;;;;;;;4.93;2.97;;;640.50;1868.80;;;;;;4997136;28;20026;-81
2021/08/19 09:31:10;;;;;;;5.35;3.13;;;640.40;1817.60;;;;;;4996855;28;20037;-80
2021/08/19 09:33:39;;;;;;;6.22;2.70;;;640.60;1817.60;;;;;;4997044;28;20029;-80
2021/08/19 09:36:06;;;;;;;4.35;2.60;;;640.90;1792.00;;;;;;5014095;28;20426;-80
2021/08/19 09:38:44;;;;;;;4.65;2.92;;;665.60;1817.60;;;;;;4996832;28;20033;-80
2021/08/19 09:41:17;;;;;;;6.95;3.03;;;665.60;1792.00;;;;;;4996919;28;20128;-80
2021/08/19 09:43:53;;;;;;;4.90;2.42;;;665.70;1766.40;;;;;;4996747;28;20121;-81
2021/08/19 09:46:28;;;;;;;5.65;3.00;;;666.50;1766.40;;;;;;4996795;28;20040;-81
2021/08/19 09:48:54;;;;;;;7.82;2.88;;;665.80;1792.00;;;;;;5014441;28;20036;-80
2021/08/19 09:51:24;;;;;;;5.07;3.03;;;666.00;1740.80;;;;;;4996480;28;20026;-80
2021/08/19 09:53:58;;;;;;;4.97;3.00;;;666.50;1689.60;;;;;;4996638;28;20030;-80
2021/08/19 09:56:33;;;;;;;4.63;2.28;;;691.50;1638.40;;;;;;4996131;28;20058;-80
2021/08/19 09:59:21;;;;;;;4.07;2.60;;;691.60;1612.80;;;;;;4996224;28;20076;-81
2021/08/19 10:01:51;;;;;;;6.22;3.05;;;691.40;1612.80;;;;;;5014298;28;20030;-81
2021/08/19 10:04:19;;;;;;;4.45;2.35;;;691.90;1587.20;;;;;;4996209;28;20430;-81
2021/08/19 10:06:45;;;;;;;5.20;3.10;;;716.80;1587.20;;;;;;4996532;28;20061;-81
2021/08/19 10:09:12;;;;;;;5.28;2.75;;;717.10;1612.80;;;;;;4996489;28;20022;-81
2021/08/19 10:11:41;;;;;;;6.10;2.90;;;717.40;1561.60;;;;;;5013684;28;20032;-80
2021/08/19 10:14:11;;;;;;;7.90;3.50;;;717.40;1510.40;;;;;;4996476;28;20022;-81
2021/08/19 10:16:38;;;;;;;5.03;2.45;;;717.70;1536.00;;;;;;4996445;28;20032;-81
2021/08/19 10:19:16;;;;;;;5.93;2.88;;;742.50;1561.60;;;;;;4995847;28;20030;-81
2021/08/19 10:21:45;;;;;;;4.65;3.00;;;742.70;1510.40;;;;;;4995591;28;20034;-81
2021/08/19 10:24:12;;;;;;;8.27;3.25;;;742.80;1510.40;;;;;;5013873;28;20442;-81
2021/08/19 10:26:38;;;;;;;6.15;3.75;;;742.90;1510.40;;;;;;4996033;28;20487;-82
2021/08/19 10:29:04;;;;;;;4.30;2.67;;;743.00;1484.80;;;;;;4995915;28;20030;-81
2021/08/19 10:31:36;;;;;;;4.57;2.75;;;742.90;1459.20;;;;;;4996418;28;20088;-81
2021/08/19 10:34:03;;;;;;;7.00;2.92;;;742.80;1510.40;;;;;;4996277;28;20080;-81
2021/08/19 10:36:28;;;;;;;4.72;2.17;;;743.00;1484.80;;;;;;4996243;28;20045;-81
2021/08/19 10:39:20;;;;;;;3.53;2.13;;;743.00;1484.80;;;;;;4996226;28;20042;-81
2021/08/19 10:41:56;;;;;;;4.68;2.60;;;743.10;1459.20;;;;;;4996080;28;20032;-81
2021/08/19 10:44:30;;;;;;;5.28;2.80;;;743.10;1433.60;;;;;;5013844;28;20425;-81
2021/08/19 10:46:56;;;;;;;4.93;3.03;;;743.10;1484.80;;;;;;4995870;28;20491;-82
2021/08/19 10:49:37;;;;;;;6.30;4.20;;;768.00;1433.60;;;;;;4995981;28;20061;-81
2021/08/19 10:52:08;;;;;;;5.40;3.03;;;768.10;1433.60;;;;;;5013384;28;20033;-81
2021/08/19 10:54:41;;;;;;;7.70;3.38;;;768.50;1408.00;;;;;;4995721;28;20026;-81
2021/08/19 10:57:27;;;;;;;5.82;2.75;;;793.60;1459.20;;;;;;4996010;28;20054;-80
2021/08/19 11:00:10;;;;;;;5.57;2.92;;;793.70;1408.00;;;;;;4996116;28;20036;-81
2021/08/19 11:02:44;;;;;;;5.40;3.20;;;793.90;1433.60;;;;;;4995868;28;20117;-81
2021/08/19 11:05:20;;;;;;;10.32;8.07;;;794.00;1408.00;;;;;;5014148;28;20022;-81
2021/08/19 11:07:47;;;;;;;6.32;3.40;;;794.20;1408.00;;;;;;4995785;28;20037;-81
2021/08/19 11:10:29;;;;;;;5.72;2.95;;;794.20;1382.40;;;;;;4996200;28;20442;-81
2021/08/19 11:13:13;;;;;;;11.88;3.08;;;794.50;1408.00;;;;;;4995979;28;20478;-81
2021/08/19 11:15:49;;;;;;;6.65;3.20;;;794.50;1382.40;;;;;;4995563;28;20041;-82
2021/08/19 11:18:24;;;;;;;6.03;3.17;;;794.20;1382.40;;;;;;4995988;28;20128;-81
2021/08/19 11:20:51;;;;;;;5.93;3.20;;;794.40;1382.40;;;;;;4995819;28;20403;-81
2021/08/19 11:23:17;;;;;;;8.18;5.78;;;794.00;1356.80;;;;;;4995523;28;20049;-81
2021/08/19 11:25:44;;;;;;;7.07;3.83;;;794.30;1356.80;;;;;;4995783;28;20407;-81
2021/08/19 11:28:18;;;;;;;6.25;2.38;;;819.30;1356.80;;;;;;4995371;28;20040;-81
2021/08/19 11:30:49;;;;;;;4.28;2.30;;;819.40;1356.80;;;;;;4995725;28;20057;-80
2021/08/19 11:33:23;;;;;;;5.43;2.33;;;819.30;1331.20;;;;;;4998062;28;20080;-81
2021/08/19 11:35:55;;;;;;;5.30;2.13;;;819.50;1331.20;;;;;;4998882;28;20041;-81
2021/08/19 11:38:22;;;;;;;7.53;2.53;;;794.20;1331.20;;;;;;4999253;28;20053;-81
2021/08/19 11:41:09;;;;;;;4.53;2.20;;;819.20;1356.80;;;;;;4999350;28;20034;-81
2021/08/19 11:43:35;;;;;;;4.97;2.22;;;819.40;1331.20;;;;;;5016349;28;20030;-81
2021/08/19 11:46:17;;;;;;;4.68;2.70;;;819.60;1331.20;;;;;;4999102;28;20029;-81
2021/08/19 11:48:57;;;;;;;5.85;2.63;;;819.80;1331.20;;;;;;4999230;28;20026;-82
2021/08/19 11:51:35;;;;;;;5.63;2.30;;;820.10;1305.60;;;;;;4999130;28;20061;-81
2021/08/19 11:54:14;;;;;;;4.05;1.92;;;820.10;1305.60;;;;;;4998904;28;20380;-81
2021/08/19 11:56:45;;;;;;;4.47;2.50;;;820.10;1305.60;;;;;;4998200;28;20053;-82
2021/08/19 11:59:16;;;;;;;6.47;3.20;;;820.10;1280.00;;;;;;4999032;28;20125;-82
2021/08/19 12:01:52;;;;;;;4.53;2.70;;;844.80;1331.20;;;;;;4998747;28;20446;-82
2021/08/19 12:04:33;;;;;;;4.50;2.20;;;844.80;1280.00;;;;;;4998351;28;20026;-81
2021/08/19 12:07:00;;;;;;;6.50;2.63;;;844.90;1305.60;;;;;;4998853;28;20030;-81
2021/08/19 12:09:29;;;;;;;6.75;2.55;;;844.90;1280.00;;;;;;4998802;28;20525;-82
2021/08/19 12:11:56;;;;;;;4.38;2.33;;;845.10;1280.00;;;;;;4998384;28;20033;-81
2021/08/19 12:14:26;;;;;;;5.78;2.13;;;845.20;1280.00;;;;;;4998482;28;20064;-82
2021/08/19 12:16:54;;;;;;;5.05;2.60;;;845.20;1280.00;;;;;;4998510;28;20029;-81
2021/08/19 12:19:27;;;;;;;4.47;2.30;;;845.20;1254.40;;;;;;4998179;28;20033;-82
2021/08/19 12:21:53;;;;;;;5.03;2.45;;;845.40;1254.40;;;;;;4998490;28;20076;-82
2021/08/19 12:24:22;;;;;;;4.22;2.13;;;845.70;1254.40;;;;;;4998000;28;20029;-81
2021/08/19 12:27:16;;;;;;;5.45;3.00;;;845.50;1254.40;;;;;;4998372;28;20048;-82
2021/08/19 12:29:51;;;;;;;6.15;2.20;;;845.20;1228.80;;;;;;4998247;28;20032;-81
2021/08/19 12:32:27;;;;;;;6.88;2.95;;;845.70;1254.40;;;;;;4997990;28;20032;-81
2021/08/19 12:35:07;;;;;;;6.45;2.58;;;870.50;1254.40;;;;;;4998335;28;20036;-81
2021/08/19 12:37:35;;;;;;;6.95;2.95;;;870.70;1228.80;;;;;;4998071;28;20526;-81
2021/08/19 12:40:13;;;;;;;7.15;3.35;;;870.60;1203.20;;;;;;5015384;28;20034;-82
2021/08/19 12:42:40;;;;;;;9.48;3.95;;;870.60;1203.20;;;;;;4998242;28;20415;-82
2021/08/19 12:45:11;;;;;;;5.68;2.78;;;870.90;1203.20;;;;;;4997065;28;20423;-82
2021/08/19 12:47:40;;;;;;;4.75;2.47;;;870.50;1177.60;;;;;;4998196;28;20124;-82
2021/08/19 12:50:06;;;;;;;8.70;2.45;;;845.70;1228.80;;;;;;4997920;28;20438;-82
2021/08/19 12:52:32;;;;;;;5.57;2.15;;;870.50;1228.80;;;;;;5015139;28;20443;-82
2021/08/19 12:55:03;;;;;;;5.70;2.33;;;870.50;1203.20;;;;;;4997717;28;20057;-81
2021/08/19 12:57:48;;;;;;;4.90;2.13;;;870.70;1228.80;;;;;;4997712;28;20033;-81
2021/08/19 13:00:26;;;;;;;4.53;2.10;;;845.70;1203.20;;;;;;4997649;28;20057;-81
2021/08/19 13:02:53;;;;;;;9.45;2.55;;;845.50;1203.20;;;;;;4997695;28;20022;-81
2021/08/19 13:05:21;;;;;;;4.60;2.42;;;870.50;1203.20;;;;;;4997519;28;20037;-80
2021/08/19 13:07:51;;;;;;;3.67;2.13;;;870.60;1203.20;;;;;;4997368;28;20126;-81
2021/08/19 13:10:18;;;;;;;4.30;2.15;;;870.70;1203.20;;;;;;4997946;28;20156;-81
2021/08/19 13:12:45;;;;;;;5.95;2.80;;;870.50;1228.80;;;;;;5015460;28;20091;-81
2021/08/19 13:15:13;;;;;;;3.20;2.03;;;870.50;1177.60;;;;;;4997234;28;20034;-81
2021/08/19 13:17:40;;;;;;;4.45;2.25;;;845.20;1203.20;;;;;;4997158;28;20124;-80
2021/08/19 13:20:07;;;;;;;5.75;2.70;;;845.20;1228.80;;;;;;4996926;28;20141;-80
2021/08/19 13:22:33;;;;;;;5.15;2.38;;;844.80;1203.20;;;;;;4997267;28;20033;-81
2021/08/19 13:24:59;;;;;;;4.45;2.78;;;845.00;1203.20;;;;;;4997327;28;20030;-80
2021/08/19 13:27:25;;;;;;;7.10;2.65;;;820.10;1203.20;;;;;;4996971;28;20052;-80
2021/08/19 13:29:54;;;;;;;4.35;2.40;;;845.50;1203.20;;;;;;4997180;28;20080;-80
2021/08/19 13:32:20;;;;;;;6.78;2.97;;;845.70;1228.80;;;;;;5014665;28;20026;-80
2021/08/19 13:34:46;;;;;;;4.03;2.42;;;870.40;1228.80;;;;;;5014346;28;20053;-81
2021/08/19 13:37:12;;;;;;;5.97;2.90;;;845.70;1203.20;;;;;;4996916;28;20065;-80
2021/08/19 13:39:40;;;;;;;5.95;2.60;;;870.80;1228.80;;;;;;5014544;28;20352;-80
2021/08/19 13:42:06;;;;;;;5.75;3.35;;;870.90;1203.20;;;;;;4996599;28;20029;-80
2021/08/19 13:44:34;;;;;;;6.30;2.63;;;870.90;1177.60;;;;;;4996463;28;20060;-81
2021/08/19 13:47:03;;;;;;;7.07;3.22;;;845.40;1203.20;;;;;;5014051;28;20030;-81
2021/08/19 13:49:30;;;;;;;4.95;2.40;;;845.70;1228.80;;;;;;4996261;28;20087;-80